createdAt,value
2018-09-04T00:01:44.329Z,13.83
2018-09-04T00:04:16.441Z,14.43
2018-09-04T00:06:48.463Z,17.30
2018-09-04T00:09:20.459Z,15.70
2018-09-04T00:11:52.500Z,16.03
2018-09-04T00:14:24.515Z,19.43
2018-09-04T00:16:56.569Z,16.23
2018-09-04T00:19:28.606Z,16.90
2018-09-04T00:22:00.637Z,16.17
2018-09-04T00:24:32.625Z,18.27
2018-09-04T00:27:04.649Z,17.90
2018-09-04T00:29:36.641Z,21.43
2018-09-04T00:32:08.708Z,15.43
2018-09-04T00:34:40.737Z,18.07
2018-09-04T00:37:13.106Z,19.53
2018-09-04T00:39:45.143Z,18.07
2018-09-04T00:42:17.189Z,21.63
2018-09-04T00:44:49.186Z,18.13
2018-09-04T00:47:21.231Z,19.40
2018-09-04T00:49:53.225Z,21.33
2018-09-04T00:52:25.307Z,17.17
2018-09-04T00:54:57.290Z,23.23
2018-09-04T00:57:29.301Z,16.00
2018-09-04T01:00:01.308Z,20.07
2018-09-04T01:02:33.382Z,19.73
2018-09-04T01:05:05.422Z,17.33
2018-09-04T01:07:37.405Z,15.37
2018-09-04T01:10:09.434Z,20.03
2018-09-04T01:12:41.444Z,20.83
2018-09-04T01:15:13.492Z,16.03
2018-09-04T01:17:45.749Z,18.90
2018-09-04T01:20:17.853Z,17.67
2018-09-04T01:22:49.886Z,20.47
2018-09-04T01:25:21.966Z,23.07
2018-09-04T01:27:53.950Z,28.27
2018-09-04T01:30:25.991Z,19.33
2018-09-04T01:32:57.990Z,20.50
2018-09-04T01:35:30.114Z,18.60
2018-09-04T01:38:02.117Z,22.93
2018-09-04T01:40:34.150Z,18.43
2018-09-04T01:43:06.159Z,23.40
2018-09-04T01:45:38.197Z,20.53
2018-09-04T01:48:10.278Z,18.87
2018-09-04T01:50:42.935Z,31.00
2018-09-04T01:53:14.970Z,23.80
2018-09-04T01:55:47.229Z,17.50
2018-09-04T01:58:19.302Z,19.37
2018-09-04T02:00:51.351Z,21.40
2018-09-04T02:03:23.381Z,23.97
2018-09-04T02:05:55.566Z,25.00
2018-09-04T02:08:27.637Z,24.67
2018-09-04T02:10:59.673Z,26.63
2018-09-04T02:13:31.726Z,21.30
2018-09-04T02:16:04.019Z,28.97
2018-09-04T02:18:36.039Z,22.70
2018-09-04T02:21:08.033Z,28.63
2018-09-04T02:23:40.110Z,26.60
2018-09-04T02:26:12.131Z,26.77
2018-09-04T02:28:44.145Z,29.23
2018-09-04T02:31:16.195Z,24.77
2018-09-04T02:33:48.240Z,24.27
2018-09-04T02:36:20.300Z,25.13
2018-09-04T02:38:52.334Z,27.80
2018-09-04T02:41:24.388Z,23.53
2018-09-04T02:43:56.439Z,27.60
2018-09-04T02:46:28.445Z,24.57
2018-09-04T02:49:00.485Z,24.47
2018-09-04T02:51:32.506Z,28.10
2018-09-04T02:54:04.545Z,25.03
2018-09-04T02:56:36.529Z,27.40
2018-09-04T02:59:08.554Z,31.23
2018-09-04T03:01:40.570Z,21.83
2018-09-04T03:04:12.594Z,26.40
2018-09-04T03:06:44.813Z,26.30
2018-09-04T03:09:16.852Z,21.77
2018-09-04T03:11:48.883Z,27.30
2018-09-04T03:14:20.910Z,24.53
2018-09-04T03:16:52.977Z,21.70
2018-09-04T03:19:25.046Z,30.30
2018-09-04T03:21:57.106Z,21.93
2018-09-04T03:24:29.185Z,20.43
2018-09-04T03:27:01.200Z,20.47
2018-09-04T03:29:33.210Z,24.87
2018-09-04T03:32:05.637Z,26.90
2018-09-04T03:34:37.690Z,22.17
2018-09-04T03:37:09.833Z,24.60
2018-09-04T03:39:41.883Z,23.67
2018-09-04T03:42:14.082Z,28.43
2018-09-04T03:44:46.064Z,25.77
2018-09-04T03:47:18.093Z,27.30
2018-09-04T03:49:50.094Z,30.17
2018-09-04T03:52:22.205Z,28.80
2018-09-04T03:54:54.136Z,33.83
2018-09-04T03:57:26.159Z,31.77
2018-09-04T03:59:58.138Z,21.17
2018-09-04T04:02:30.197Z,30.87
2018-09-04T04:05:02.178Z,28.00
2018-09-04T04:07:34.229Z,29.50
2018-09-04T04:10:06.221Z,31.40
2018-09-04T04:12:38.335Z,24.67
2018-09-04T04:15:10.385Z,26.23
2018-09-04T04:17:42.408Z,28.73
2018-09-04T04:20:14.450Z,29.67
2018-09-04T04:22:46.692Z,31.70
2018-09-04T04:25:18.691Z,28.13
2018-09-04T04:27:50.804Z,33.00
2018-09-04T04:30:22.854Z,27.20
2018-09-04T04:32:54.962Z,37.87
2018-09-04T04:35:27.045Z,35.37
2018-09-04T04:37:59.206Z,28.83
2018-09-04T04:40:31.275Z,34.90
2018-09-04T04:43:03.354Z,28.83
2018-09-04T04:45:35.368Z,25.20
2018-09-04T04:48:07.410Z,24.23
2018-09-04T04:50:39.405Z,29.40
2018-09-04T04:53:11.535Z,18.43
2018-09-04T04:55:43.618Z,23.07
2018-09-04T04:58:15.715Z,22.67
2018-09-04T05:00:47.703Z,20.50
2018-09-04T05:03:19.715Z,25.47
2018-09-04T05:05:51.729Z,20.30
2018-09-04T05:08:23.761Z,23.60
2018-09-04T05:10:55.799Z,19.43
2018-09-04T05:13:27.841Z,21.87
2018-09-04T05:15:59.974Z,18.90
2018-09-04T05:18:32.025Z,22.63
2018-09-04T05:21:04.058Z,22.87
2018-09-04T05:23:36.066Z,22.93
2018-09-04T05:26:08.069Z,18.77
2018-09-04T05:28:40.198Z,18.23
2018-09-04T05:31:12.206Z,21.40
2018-09-04T05:33:45.024Z,25.43
2018-09-04T05:36:17.113Z,19.70
2018-09-04T05:38:49.190Z,18.50
2018-09-04T05:41:21.189Z,18.13
2018-09-04T05:43:56.875Z,23.23
2018-09-04T05:46:48.168Z,20.30
2018-09-04T05:49:22.388Z,20.07
2018-09-04T05:51:54.448Z,18.47
2018-09-04T05:54:26.469Z,15.30
2018-09-04T05:56:58.520Z,17.77
2018-09-04T05:59:30.506Z,16.73
2018-09-04T06:02:02.610Z,22.10
2018-09-04T06:04:34.600Z,19.90
2018-09-04T06:07:06.736Z,22.07
2018-09-04T06:09:38.763Z,17.30
2018-09-04T06:12:10.782Z,19.17
2018-09-04T06:14:42.786Z,16.13
2018-09-04T06:17:14.805Z,19.13
2018-09-04T06:19:46.990Z,19.90
2018-09-04T06:22:19.278Z,26.33
2018-09-04T06:24:51.394Z,15.23
2018-09-04T06:27:23.455Z,14.67
2018-09-04T06:29:56.094Z,26.00
2018-09-04T06:32:28.279Z,11.80
2018-09-04T06:35:00.370Z,14.58
2018-09-04T06:37:32.563Z,10.40
2018-09-04T06:40:04.793Z,17.95
2018-09-04T06:42:36.842Z,12.53
2018-09-04T06:45:08.891Z,20.30
2018-09-04T06:47:40.932Z,34.98
2018-09-04T06:50:13.018Z,15.10
2018-09-04T06:52:45.346Z,13.03
2018-09-04T06:55:17.374Z,13.80
2018-09-04T06:57:49.495Z,15.30
2018-09-04T07:00:21.434Z,16.10
2018-09-04T07:02:53.553Z,15.80
2018-09-04T07:05:25.561Z,12.03
2018-09-04T07:07:57.699Z,14.60
2018-09-04T07:10:29.706Z,12.30
2018-09-04T07:13:01.729Z,17.15
2018-09-04T07:15:33.799Z,14.30
2018-09-04T07:18:05.852Z,13.60
2018-09-04T07:20:37.907Z,13.70
2018-09-04T07:23:09.963Z,12.43
2018-09-04T07:25:41.971Z,17.10
2018-09-04T07:28:14.065Z,21.20
2018-09-04T07:30:46.070Z,11.18
2018-09-04T07:33:18.156Z,14.38
2018-09-04T07:35:50.159Z,11.40
2018-09-04T07:38:22.208Z,8.55
2018-09-04T07:40:54.234Z,13.98
2018-09-04T07:43:26.259Z,13.28
2018-09-04T07:45:58.253Z,13.20
2018-09-04T07:48:30.315Z,13.03
2018-09-04T07:51:02.348Z,14.60
2018-09-04T07:53:34.403Z,14.25
2018-09-04T07:56:06.469Z,13.93
2018-09-04T07:58:38.566Z,11.03
2018-09-04T08:01:10.615Z,10.70
2018-09-04T08:03:42.639Z,13.98
2018-09-04T08:06:14.654Z,13.90
2018-09-04T08:08:46.725Z,18.75
2018-09-04T08:11:18.778Z,14.58
2018-09-04T08:13:50.855Z,11.25
2018-09-04T08:16:22.982Z,10.25
2018-09-04T08:18:54.955Z,13.70
2018-09-04T08:21:27.040Z,10.58
2018-09-04T08:23:59.157Z,9.10
2018-09-04T08:26:31.219Z,13.50
2018-09-04T08:29:03.318Z,9.45
2018-09-04T08:31:35.379Z,10.48
2018-09-04T08:34:07.456Z,13.28
2018-09-04T08:36:39.500Z,10.50
2018-09-04T08:39:11.553Z,12.78
2018-09-04T08:41:43.538Z,9.53
2018-09-04T08:44:15.635Z,9.30
2018-09-04T08:46:47.634Z,8.18
2018-09-04T08:49:19.719Z,12.28
2018-09-04T08:51:51.772Z,13.88
2018-09-04T08:54:23.813Z,10.55
2018-09-04T08:56:56.900Z,10.90
2018-09-04T08:59:29.347Z,12.60
2018-09-04T09:02:01.414Z,20.88
2018-09-04T09:04:33.666Z,15.28
2018-09-04T09:07:05.790Z,13.75
2018-09-04T09:09:37.816Z,9.25
2018-09-04T09:12:09.839Z,9.68
2018-09-04T09:14:41.867Z,12.90
2018-09-04T09:17:13.870Z,9.03
2018-09-04T09:19:45.906Z,9.93
2018-09-04T09:22:17.947Z,8.48
2018-09-04T09:24:50.032Z,14.23
2018-09-04T09:27:22.039Z,8.93
2018-09-04T09:29:54.174Z,11.18
2018-09-04T09:32:26.199Z,15.72
2018-09-04T09:34:58.346Z,10.13
2018-09-04T09:37:30.356Z,12.15
2018-09-04T09:40:02.392Z,12.23
2018-09-04T09:42:34.445Z,12.90
2018-09-04T09:45:06.545Z,7.60
2018-09-04T09:47:44.521Z,9.55
2018-09-04T09:50:17.321Z,12.70
2018-09-04T09:52:49.348Z,11.78
2018-09-04T09:55:21.461Z,11.55
2018-09-04T09:57:53.614Z,7.20
2018-09-04T10:00:31.484Z,6.85
2018-09-04T10:03:04.946Z,14.30
2018-09-04T10:05:37.024Z,9.30
2018-09-04T10:08:09.112Z,8.30
2018-09-04T10:10:41.118Z,10.58
2018-09-04T10:13:13.151Z,9.58
2018-09-04T10:15:45.191Z,8.53
2018-09-04T10:18:17.183Z,8.38
2018-09-04T10:20:49.209Z,7.85
2018-09-04T10:23:21.254Z,10.53
2018-09-04T10:25:53.339Z,10.90
2018-09-04T10:28:25.442Z,7.87
2018-09-04T10:30:57.569Z,8.50
2018-09-04T10:33:29.604Z,7.75
2018-09-04T10:36:01.655Z,7.37
2018-09-04T10:38:33.782Z,7.92
2018-09-04T10:41:09.433Z,9.23
2018-09-04T10:43:41.491Z,10.70
2018-09-04T10:46:14.614Z,11.20
2018-09-04T10:48:46.975Z,15.38
2018-09-04T10:51:19.088Z,14.43
2018-09-04T10:53:51.123Z,10.20
2018-09-04T10:56:23.252Z,6.72
2018-09-04T10:58:55.383Z,9.18
2018-09-04T11:01:27.480Z,10.08
2018-09-04T11:03:59.584Z,6.25
2018-09-04T11:06:31.633Z,8.03
2018-09-04T11:09:07.226Z,9.18
2018-09-04T11:11:40.291Z,6.70
2018-09-04T11:14:12.363Z,8.63
2018-09-04T11:16:44.441Z,5.20
2018-09-04T11:19:16.484Z,6.60
2018-09-04T11:21:48.573Z,6.70
2018-09-04T11:24:20.726Z,9.38
2018-09-04T11:26:52.767Z,12.30
2018-09-04T11:29:24.918Z,7.97
2018-09-04T11:31:56.942Z,7.00
2018-09-04T11:34:28.999Z,11.70
2018-09-04T11:37:00.995Z,9.13
2018-09-04T11:39:33.044Z,6.50
2018-09-04T11:42:05.269Z,7.97
2018-09-04T11:44:37.346Z,8.90
2018-09-04T11:47:10.922Z,9.20
2018-09-04T11:49:43.008Z,9.08
2018-09-04T11:52:15.017Z,9.48
2018-09-04T11:54:47.118Z,10.95
2018-09-04T11:57:20.702Z,8.30
2018-09-04T11:59:52.816Z,10.68
2018-09-04T12:02:30.828Z,7.03
2018-09-04T12:05:02.918Z,11.73
2018-09-04T12:07:34.958Z,6.70
2018-09-04T12:10:07.082Z,11.60
2018-09-04T12:12:39.308Z,9.88
2018-09-04T12:15:11.341Z,8.83
2018-09-04T12:17:43.400Z,7.20
2018-09-04T12:20:51.159Z,6.37
2018-09-04T12:23:23.153Z,9.90
2018-09-04T12:25:56.563Z,8.28
2018-09-04T12:28:28.701Z,11.18
2018-09-04T12:31:01.022Z,6.53
2018-09-04T12:33:33.084Z,9.60
2018-09-04T12:36:05.190Z,7.45
2018-09-04T12:38:38.824Z,7.87
2018-09-04T12:41:14.305Z,10.43
2018-09-04T12:43:46.299Z,8.48
2018-09-04T12:46:18.358Z,10.25
2018-09-04T12:48:51.227Z,7.92
2018-09-04T12:51:23.443Z,14.28
2018-09-04T12:53:55.501Z,5.37
2018-09-04T12:56:27.528Z,10.72
2018-09-04T12:58:59.570Z,10.45
2018-09-04T13:01:31.597Z,10.68
2018-09-04T13:04:03.677Z,9.63
2018-09-04T13:06:35.739Z,9.98
2018-09-04T13:09:07.883Z,11.90
2018-09-04T13:11:39.855Z,9.35
2018-09-04T13:14:11.938Z,5.42
2018-09-04T13:16:43.978Z,6.80
2018-09-04T13:19:16.162Z,7.03
2018-09-04T13:21:48.293Z,7.17
2018-09-04T13:24:20.430Z,8.35
2018-09-04T13:26:52.617Z,7.58
2018-09-04T13:29:24.658Z,7.20
2018-09-04T13:31:57.107Z,10.93
2018-09-04T13:34:29.264Z,9.18
2018-09-04T13:37:01.250Z,12.45
2018-09-04T13:39:33.323Z,12.70
2018-09-04T13:42:06.052Z,8.20
2018-09-04T13:44:38.104Z,7.67
2018-09-04T13:47:10.224Z,9.63
2018-09-04T13:49:42.519Z,7.50
2018-09-04T13:52:14.405Z,10.75
2018-09-04T13:54:46.736Z,9.38
2018-09-04T13:57:18.859Z,7.03
2018-09-04T13:59:50.901Z,9.80
2018-09-04T14:02:23.006Z,7.45
2018-09-04T14:04:55.062Z,8.60
2018-09-04T14:07:27.202Z,15.85
2018-09-04T14:09:59.323Z,15.23
2018-09-04T14:12:31.314Z,22.20
2018-09-04T14:15:03.422Z,16.35
2018-09-04T14:17:35.499Z,10.45
2018-09-04T14:20:07.573Z,7.97
2018-09-04T14:22:39.657Z,13.78
2018-09-04T14:25:11.687Z,10.55
2018-09-04T14:27:43.735Z,7.80
2018-09-04T14:30:16.141Z,10.85
2018-09-04T14:33:14.129Z,10.58
2018-09-04T14:35:50.011Z,15.40
2018-09-04T14:38:22.082Z,14.03
2018-09-04T14:40:54.124Z,10.53
2018-09-04T14:43:26.225Z,9.35
2018-09-04T14:45:58.230Z,10.70
2018-09-04T14:48:30.245Z,8.45
2018-09-04T14:51:03.270Z,8.60
2018-09-04T14:53:35.393Z,7.35
2018-09-04T14:56:07.407Z,10.80
2018-09-04T14:58:39.493Z,9.20
2018-09-04T15:01:11.494Z,8.65
2018-09-04T15:03:43.524Z,8.48
2018-09-04T15:06:15.586Z,11.95
2018-09-04T15:08:47.634Z,11.30
2018-09-04T15:11:19.718Z,8.08
2018-09-04T15:13:51.818Z,5.55
2018-09-04T15:16:23.839Z,9.08
2018-09-04T15:18:55.946Z,11.25
2018-09-04T15:21:27.978Z,6.17
2018-09-04T15:24:00.045Z,11.40
2018-09-04T15:26:32.105Z,7.60
2018-09-04T15:29:04.259Z,11.50
2018-09-04T15:31:36.488Z,5.12
2018-09-04T15:34:08.538Z,5.90
2018-09-04T15:36:40.653Z,7.08
2018-09-04T15:39:12.668Z,11.48
2018-09-04T15:41:44.690Z,9.23
2018-09-04T15:44:17.439Z,7.62
2018-09-04T15:46:49.474Z,7.70
2018-09-04T15:49:27.401Z,4.85
2018-09-04T15:51:59.457Z,7.17
2018-09-04T15:54:31.517Z,6.65
2018-09-04T15:57:03.574Z,11.30
2018-09-04T15:59:35.605Z,7.15
2018-09-04T16:02:07.809Z,5.55
2018-09-04T16:04:39.872Z,9.70
2018-09-04T16:07:11.913Z,11.30
2018-09-04T16:09:44.059Z,7.37
2018-09-04T16:12:16.167Z,8.15
2018-09-04T16:14:48.238Z,9.25
2018-09-04T16:17:20.267Z,11.78
2018-09-04T16:19:52.337Z,10.20
2018-09-04T16:22:25.770Z,6.40
2018-09-04T16:24:57.839Z,9.30
2018-09-04T16:27:29.865Z,5.85
2018-09-04T16:30:01.918Z,7.70
2018-09-04T16:32:34.021Z,10.15
2018-09-04T16:35:06.051Z,8.38
2018-09-04T16:37:38.074Z,6.12
2018-09-04T16:40:10.122Z,10.53
2018-09-04T16:42:42.123Z,11.60
2018-09-04T16:45:14.170Z,11.78
2018-09-04T16:47:47.747Z,5.72
2018-09-04T16:50:19.752Z,3.60
2018-09-04T16:52:51.756Z,6.33
2018-09-04T16:55:24.243Z,8.05
2018-09-04T16:57:56.282Z,7.75
2018-09-04T17:00:28.736Z,6.60
2018-09-04T17:03:00.806Z,6.80
2018-09-04T17:05:32.900Z,5.90
2018-09-04T17:08:04.965Z,10.82
2018-09-04T17:10:37.006Z,5.58
2018-09-04T17:13:09.040Z,5.50
2018-09-04T17:15:41.559Z,7.75
2018-09-04T17:18:13.602Z,9.15
2018-09-04T17:20:45.614Z,10.03
2018-09-04T17:23:17.664Z,13.58
2018-09-04T17:25:49.685Z,9.55
2018-09-04T17:28:21.682Z,9.25
2018-09-04T17:30:53.724Z,4.60
2018-09-04T17:33:25.950Z,4.90
2018-09-04T17:35:58.095Z,6.65
2018-09-04T17:38:30.177Z,10.60
2018-09-04T17:41:02.290Z,6.10
2018-09-04T17:43:34.386Z,9.65
2018-09-04T17:46:06.403Z,8.18
2018-09-04T17:48:38.480Z,13.45
2018-09-04T17:51:10.501Z,12.73
2018-09-04T17:53:42.564Z,10.38
2018-09-04T17:56:14.829Z,8.90
2018-09-04T17:58:46.941Z,9.90
2018-09-04T18:01:18.954Z,11.10
2018-09-04T18:03:51.089Z,11.20
2018-09-04T18:06:23.575Z,9.00
2018-09-04T18:08:56.081Z,16.75
2018-09-04T18:11:28.212Z,9.20
2018-09-04T18:14:00.250Z,7.15
2018-09-04T18:16:32.573Z,13.22
2018-09-04T18:19:04.625Z,12.82
2018-09-04T18:21:36.690Z,9.77
2018-09-04T18:24:08.720Z,11.05
2018-09-04T18:26:40.753Z,11.63
2018-09-04T18:29:12.833Z,19.90
2018-09-04T18:31:44.948Z,30.43
2018-09-04T18:34:17.014Z,19.43
2018-09-04T18:36:49.081Z,18.43
2018-09-04T18:39:21.098Z,18.07
2018-09-04T18:41:53.319Z,13.60
2018-09-04T18:44:25.345Z,18.63
2018-09-04T18:46:57.654Z,10.90
2018-09-04T18:49:29.803Z,16.57
2018-09-04T18:52:01.906Z,14.23
2018-09-04T18:54:33.932Z,8.40
2018-09-04T18:57:06.000Z,12.13
2018-09-04T18:59:38.156Z,14.17
2018-09-04T19:02:10.232Z,7.77
2018-09-04T19:04:42.275Z,8.80
2018-09-04T19:07:14.394Z,8.90
2018-09-04T19:09:46.630Z,10.40
2018-09-04T19:12:18.808Z,12.07
2018-09-04T19:14:50.929Z,8.17
2018-09-04T19:17:23.012Z,14.87
2018-09-04T19:19:55.062Z,9.57
2018-09-04T19:22:27.106Z,15.70
2018-09-04T19:24:59.211Z,9.60
2018-09-04T19:27:31.276Z,11.07
2018-09-04T19:30:03.407Z,11.17
2018-09-04T19:32:35.409Z,9.77
2018-09-04T19:35:07.575Z,14.43
2018-09-04T19:37:39.992Z,7.40
2018-09-04T19:40:12.026Z,9.30
2018-09-04T19:42:44.050Z,17.73
2018-09-04T19:45:16.213Z,8.43
2018-09-04T19:47:48.218Z,9.63
2018-09-04T19:50:20.323Z,12.50
2018-09-04T19:52:52.358Z,9.20
2018-09-04T19:55:24.430Z,10.67
2018-09-04T19:57:56.438Z,12.23
2018-09-04T20:00:28.478Z,9.20
2018-09-04T20:03:00.516Z,9.83
2018-09-04T20:05:32.566Z,8.80
2018-09-04T20:08:04.602Z,10.60
2018-09-04T20:10:36.666Z,11.43
2018-09-04T20:13:08.842Z,9.40
2018-09-04T20:15:40.843Z,8.43
2018-09-04T20:18:13.462Z,8.70
2018-09-04T20:20:45.524Z,14.87
2018-09-04T20:23:17.610Z,9.33
2018-09-04T20:25:49.619Z,12.53
2018-09-04T20:28:21.730Z,10.43
2018-09-04T20:30:53.776Z,11.80
2018-09-04T20:33:26.615Z,11.83
2018-09-04T20:35:58.710Z,11.57
2018-09-04T20:38:30.998Z,10.53
2018-09-04T20:41:03.015Z,11.20
2018-09-04T20:43:35.059Z,17.23
2018-09-04T20:46:07.097Z,8.83
2018-09-04T20:48:39.148Z,9.67
2018-09-04T20:51:11.158Z,13.87
2018-09-04T20:53:43.589Z,22.73
2018-09-04T20:56:16.006Z,11.03
2018-09-04T20:59:00.083Z,10.67
2018-09-04T21:01:44.181Z,15.53
2018-09-04T21:04:27.958Z,10.03
2018-09-04T21:06:59.228Z,19.03
2018-09-04T21:09:39.404Z,17.47
2018-09-04T21:12:11.613Z,16.40
2018-09-04T21:14:44.018Z,10.87
2018-09-04T21:17:16.137Z,10.93
2018-09-04T21:19:48.214Z,15.20
2018-09-04T21:22:20.355Z,18.13
2018-09-04T21:24:53.957Z,13.47
2018-09-04T21:27:26.226Z,13.53
2018-09-04T21:29:58.398Z,11.50
2018-09-04T21:32:30.795Z,14.10
2018-09-04T21:35:03.045Z,11.93
2018-09-04T21:37:35.138Z,18.37
2018-09-04T21:40:07.574Z,10.73
2018-09-04T21:42:40.297Z,11.73
2018-09-04T21:45:12.424Z,12.23
2018-09-04T21:47:44.526Z,13.03
2018-09-04T21:50:16.619Z,12.17
2018-09-04T21:52:48.754Z,11.63
2018-09-04T21:55:20.972Z,11.70
2018-09-04T21:57:53.092Z,11.30
2018-09-04T22:00:26.829Z,14.90
2018-09-04T22:02:58.930Z,12.97
2018-09-04T22:05:31.065Z,14.57
2018-09-04T22:08:03.720Z,13.57
2018-09-04T22:10:35.805Z,12.67
2018-09-04T22:13:08.311Z,12.13
2018-09-04T22:15:40.384Z,8.13
2018-09-04T22:18:12.925Z,10.63
2018-09-04T22:20:45.014Z,18.50
2018-09-04T22:23:17.088Z,13.17
2018-09-04T22:25:49.224Z,12.27
2018-09-04T22:28:21.552Z,10.53
2018-09-04T22:30:53.670Z,17.50
2018-09-04T22:33:26.087Z,16.13
2018-09-04T22:35:58.266Z,15.40
2018-09-04T22:38:30.451Z,11.97
2018-09-04T22:41:02.852Z,20.30
2018-09-04T22:43:34.952Z,12.63
2018-09-04T22:46:07.787Z,9.73
2018-09-04T22:48:40.340Z,11.53
2018-09-04T22:51:43.225Z,15.40
2018-09-04T22:54:15.362Z,12.53
2018-09-04T22:56:47.441Z,14.60
2018-09-04T22:59:19.550Z,17.30
2018-09-04T23:01:53.987Z,12.50
2018-09-04T23:04:26.178Z,15.90
2018-09-04T23:06:58.283Z,12.80
2018-09-04T23:09:30.358Z,22.17
2018-09-04T23:12:02.402Z,20.07
2018-09-04T23:14:34.505Z,15.60
2018-09-04T23:17:06.683Z,13.53
2018-09-04T23:19:38.768Z,21.33
2018-09-04T23:22:10.876Z,15.40
2018-09-04T23:24:42.942Z,18.80
2018-09-04T23:27:15.001Z,15.90
2018-09-04T23:29:47.119Z,19.43
2018-09-04T23:32:19.173Z,15.30
2018-09-04T23:34:51.322Z,15.10
2018-09-04T23:37:23.438Z,18.33
2018-09-04T23:39:55.532Z,14.33
2018-09-04T23:42:30.728Z,16.43
2018-09-04T23:45:03.921Z,18.77
2018-09-04T23:47:35.990Z,25.30
2018-09-04T23:50:08.029Z,17.77
2018-09-04T23:52:40.225Z,15.30
2018-09-04T23:55:12.297Z,22.87
2018-09-04T23:57:44.402Z,17.23
